Startpagina
METAR-TAF:

METAR-TAF

Vliegvelden :

Luchthaven El Salvador

El Salvador, El Salvador

breedte: 13-26N, lengte: 089-03W, hoogte: 25 m

Actueel weer

Dit bericht is 33 minuten geleden gemaakt, om 05:50 UTC
Wind 9 kt uit het noordnoordoosten
Temperatuur 26°C
Vochtigheid 61%
Druk 1012 hPa
Zicht 10 km of meer
geen wolken onder 1500 m en geen cumulonimbus

METAR: MSLP 180550Z 02009KT CAVOK 26/18 Q1011 A2987 NOSIG

Tijdstip: 00:23 (06:23 UTC)

Verwachting

Dit bericht is 2 uur en het 58 minuten geleden gemaakt, om 03:25 UTC
Verwachting geldig van 18 om 06 UTC tot 19 om 06 UTC
Wind 10 kt uit het noordnoordoosten
Zicht 10 km of meer
geen wolken onder 1500 m en geen cumulonimbus
Tijdelijke
van 18 om 20 UTC tot 19 om 01 UTC
Wind 10 kt uit het zuidzuidwesten
Zicht 10 km of meer
Weinig wolken op 4300 ft

TAF: MSLP 180325Z 1806/1906 03010KT CAVOK TX34/1818Z TN23/1812Z TEMPO 1820/1901 21010KT 9999 FEW043

Waarnemingen en weersverwachtingen van meer dan 4000 vliegvelden (METAR en TAF).

De beschikbare stations zijn de gele en rode punten op de kaart.

Ga met uw muis naar het station om de naam te zien.

Klik dan om waarnemingen en weersverwachtingen te zien.

kaart wijzigen: klik op de groene knoppen met een zwart kruis om in te zoomen, op de groene knop met een streepje om uit te zoomen of op de groene pijlen voor aangrenzende kaarten.


METAR-TAF: